createdAt,value
2018-12-04T00:01:45.563Z,100270.14
2018-12-04T00:04:13.059Z,100278.70
2018-12-04T00:06:40.584Z,100285.13
2018-12-04T00:09:08.074Z,100290.58
2018-12-04T00:11:35.912Z,100292.34
2018-12-04T00:14:03.503Z,100307.78
2018-12-04T00:16:30.976Z,100304.98
2018-12-04T00:18:58.431Z,100309.53
2018-12-04T00:21:25.974Z,100314.52
2018-12-04T00:23:53.428Z,100326.91
2018-12-04T00:26:21.031Z,100339.66
2018-12-04T00:28:50.422Z,100341.61
2018-12-04T00:31:17.954Z,100350.31
2018-12-04T00:33:45.435Z,100356.22
2018-12-04T00:36:13.201Z,100360.36
2018-12-04T00:38:40.663Z,100363.09
2018-12-04T00:41:08.168Z,100366.36
2018-12-04T00:43:35.726Z,100378.83
2018-12-04T00:46:03.235Z,100383.71
2018-12-04T00:48:30.774Z,100386.19
2018-12-04T00:50:58.233Z,100389.48
2018-12-04T00:53:25.697Z,100401.52
2018-12-04T00:56:30.422Z,100406.53
2018-12-04T00:58:57.899Z,100403.13
2018-12-04T01:01:25.417Z,100407.25
2018-12-04T01:03:52.980Z,100409.48
2018-12-04T01:06:20.505Z,100411.95
2018-12-04T01:08:48.077Z,100415.48
2018-12-04T01:11:15.571Z,100415.77
2018-12-04T01:13:43.079Z,100425.23
2018-12-04T01:16:10.762Z,100434.70
2018-12-04T01:18:38.298Z,100451.45
2018-12-04T01:21:05.798Z,100459.02
2018-12-04T01:23:33.355Z,100470.41
2018-12-04T01:26:00.989Z,100475.34
2018-12-04T01:28:28.502Z,100480.46
2018-12-04T01:30:56.031Z,100484.56
2018-12-04T01:33:23.536Z,100497.23
2018-12-04T01:35:51.046Z,100506.08
2018-12-04T01:38:18.592Z,100505.05
2018-12-04T01:40:46.073Z,100512.38
2018-12-04T01:43:13.696Z,100522.14
2018-12-04T01:45:41.206Z,100523.75
2018-12-04T01:48:08.696Z,100538.48
2018-12-04T01:50:36.210Z,100550.27
2018-12-04T01:53:03.729Z,100548.64
2018-12-04T01:55:31.257Z,100560.73
2018-12-04T01:57:58.757Z,100560.20
2018-12-04T02:00:26.337Z,100562.05
2018-12-04T02:02:53.856Z,100581.48
2018-12-04T02:05:21.614Z,100587.98
2018-12-04T02:07:49.175Z,100593.73
2018-12-04T02:10:16.689Z,100589.66
2018-12-04T02:12:44.193Z,100601.58
2018-12-04T02:15:11.702Z,100608.56
2018-12-04T02:17:39.298Z,100605.08
2018-12-04T02:20:06.930Z,100616.67
2018-12-04T02:22:34.477Z,100616.44
2018-12-04T02:25:02.077Z,100618.34
2018-12-04T02:27:29.657Z,100620.56
2018-12-04T02:29:57.219Z,100625.16
2018-12-04T02:32:24.701Z,100625.97
2018-12-04T02:34:52.242Z,100636.22
2018-12-04T02:37:19.790Z,100641.39
2018-12-04T02:39:47.280Z,100648.41
2018-12-04T02:42:16.760Z,100647.88
2018-12-04T02:44:44.426Z,100664.02
2018-12-04T02:47:12.125Z,100671.32
2018-12-04T02:49:39.658Z,100677.25
2018-12-04T02:52:07.354Z,100680.24
2018-12-04T02:54:34.903Z,100680.81
2018-12-04T02:57:02.376Z,100687.58
2018-12-04T02:59:29.902Z,100706.67
2018-12-04T03:01:57.438Z,100699.70
2018-12-04T03:04:24.932Z,100706.99
2018-12-04T03:06:52.455Z,100720.46
2018-12-04T03:09:19.966Z,100725.86
2018-12-04T03:11:47.446Z,100722.89
2018-12-04T03:14:15.018Z,100728.00
2018-12-04T03:16:42.567Z,100739.33
2018-12-04T03:19:10.091Z,100744.44
2018-12-04T03:21:37.582Z,100758.75
2018-12-04T03:24:05.110Z,100757.69
2018-12-04T03:26:32.637Z,100760.40
2018-12-04T03:29:00.140Z,100765.21
2018-12-04T03:31:27.687Z,100761.99
2018-12-04T03:33:55.377Z,100765.77
2018-12-04T03:36:22.880Z,100770.36
2018-12-04T03:38:50.422Z,100774.66
2018-12-04T03:41:17.960Z,100772.01
2018-12-04T03:43:45.449Z,100771.75
2018-12-04T03:46:12.925Z,100771.20
2018-12-04T03:48:40.493Z,100783.30
2018-12-04T03:51:08.046Z,100784.67
2018-12-04T03:53:35.747Z,100788.70
2018-12-04T03:56:03.245Z,100785.20
2018-12-04T03:58:30.772Z,100795.17
2018-12-04T04:00:58.336Z,100799.20
2018-12-04T04:03:25.819Z,100810.23
2018-12-04T04:05:53.331Z,100817.75
2018-12-04T04:08:20.870Z,100822.34
2018-12-04T04:10:48.369Z,100820.45
2018-12-04T04:13:15.903Z,100831.48
2018-12-04T04:15:43.583Z,100834.17
2018-12-04T04:18:11.088Z,100852.98
2018-12-04T04:20:38.643Z,100855.95
2018-12-04T04:23:06.264Z,100858.91
2018-12-04T04:25:33.764Z,100867.77
2018-12-04T04:28:01.287Z,100874.25
2018-12-04T04:30:28.837Z,100873.18
2018-12-04T04:32:56.365Z,100875.04
2018-12-04T04:35:23.868Z,100880.97
2018-12-04T04:37:51.361Z,100880.69
2018-12-04T04:40:19.327Z,100881.77
2018-12-04T04:42:46.812Z,100890.89
2018-12-04T04:45:14.319Z,100893.58
2018-12-04T04:47:41.827Z,100891.44
2018-12-04T04:50:09.319Z,100905.16
2018-12-04T04:52:36.945Z,100910.52
2018-12-04T04:55:05.367Z,100918.03
2018-12-04T04:57:32.915Z,100925.02
2018-12-04T05:00:00.483Z,100926.64
2018-12-04T05:02:27.971Z,100931.73
2018-12-04T05:04:55.522Z,100920.98
2018-12-04T05:07:23.030Z,100931.48
2018-12-04T05:09:50.547Z,100937.38
2018-12-04T05:12:18.062Z,100941.95
2018-12-04T05:14:45.554Z,100951.89
2018-12-04T05:17:13.117Z,100954.02
2018-12-04T05:19:40.634Z,100963.69
2018-12-04T05:22:08.201Z,100970.66
2018-12-04T05:24:35.697Z,100969.02
2018-12-04T05:27:03.230Z,100974.65
2018-12-04T05:29:30.734Z,100984.58
2018-12-04T05:31:58.237Z,100985.91
2018-12-04T05:34:25.746Z,100997.17
2018-12-04T05:36:53.363Z,101004.14
2018-12-04T05:39:20.856Z,101006.25
2018-12-04T05:41:48.341Z,101014.84
2018-12-04T05:44:15.997Z,101024.48
2018-12-04T05:46:43.536Z,101040.59
2018-12-04T05:49:11.077Z,101034.40
2018-12-04T05:51:38.610Z,101037.34
2018-12-04T05:54:08.077Z,101039.20
2018-12-04T05:56:35.598Z,101052.33
2018-12-04T05:59:03.227Z,101050.97
2018-12-04T06:01:30.745Z,101055.55
2018-12-04T06:03:58.227Z,101063.33
2018-12-04T06:06:25.733Z,101075.12
2018-12-04T06:08:53.263Z,101081.05
2018-12-04T06:13:54.791Z,101088.81
2018-12-04T06:16:22.347Z,101097.41
2018-12-04T06:18:49.823Z,101110.83
2018-12-04T06:21:17.490Z,101117.81
2018-12-04T06:23:44.983Z,101124.52
2018-12-04T06:26:12.484Z,101140.85
2018-12-04T06:28:40.029Z,101136.03
2018-12-04T06:31:07.524Z,101151.33
2018-12-04T06:33:35.063Z,101151.07
2018-12-04T06:36:02.633Z,101171.50
2018-12-04T06:38:30.117Z,101184.63
2018-12-04T06:40:57.665Z,101185.15
2018-12-04T06:43:25.166Z,101194.83
2018-12-04T06:45:52.668Z,101194.84
2018-12-04T06:48:20.280Z,101194.34
2018-12-04T06:50:47.770Z,101202.98
2018-12-04T06:53:15.316Z,101206.48
2018-12-04T06:55:42.869Z,101211.83
2018-12-04T06:58:10.362Z,101223.11
2018-12-04T07:00:37.847Z,101231.16
2018-12-04T07:03:05.390Z,101229.80
2018-12-04T07:05:32.891Z,101236.77
2018-12-04T07:08:00.437Z,101238.64
2018-12-04T07:10:27.988Z,101248.87
2018-12-04T07:12:55.491Z,101259.34
2018-12-04T07:15:24.071Z,101259.88
2018-12-04T07:17:52.317Z,101264.50
2018-12-04T07:20:19.863Z,101269.86
2018-12-04T07:22:47.341Z,101275.77
2018-12-04T07:25:14.861Z,101280.08
2018-12-04T07:27:42.344Z,101281.70
2018-12-04T07:30:10.053Z,101280.10
2018-12-04T07:32:38.852Z,101282.50
2018-12-04T07:35:06.580Z,101287.87
2018-12-04T07:37:34.063Z,101300.50
2018-12-04T07:40:01.598Z,101295.64
2018-12-04T07:42:29.140Z,101307.73
2018-12-04T07:44:56.627Z,101311.73
2018-12-04T07:47:24.242Z,101313.33
2018-12-04T07:49:51.732Z,101321.08
2018-12-04T07:52:19.214Z,101320.25
2018-12-04T07:54:46.774Z,101331.19
2018-12-04T07:57:14.256Z,101335.76
2018-12-04T07:59:41.815Z,101337.91
2018-12-04T08:02:09.323Z,101341.91
2018-12-04T08:04:36.878Z,101348.84
2018-12-04T08:07:04.363Z,101357.46
2018-12-04T08:09:31.895Z,101363.08
2018-12-04T08:11:59.511Z,101367.62
2018-12-04T08:14:26.998Z,101380.78
2018-12-04T08:16:54.476Z,101382.92
2018-12-04T08:19:22.097Z,101393.11
2018-12-04T08:21:49.861Z,101395.03
2018-12-04T08:24:17.352Z,101401.22
2018-12-04T08:26:44.979Z,101415.47
2018-12-04T08:29:12.514Z,101419.02
2018-12-04T08:31:40.078Z,101427.16
2018-12-04T08:34:07.640Z,101435.52
2018-12-04T08:36:35.120Z,101438.86
2018-12-04T08:39:02.627Z,101439.56
2018-12-04T08:41:30.251Z,101436.44
2018-12-04T08:43:57.777Z,101439.22
2018-12-04T08:46:25.330Z,101439.50
2018-12-04T08:48:52.837Z,101442.23
2018-12-04T08:51:20.323Z,101453.86
2018-12-04T08:53:47.829Z,101459.77
2018-12-04T08:56:15.338Z,101465.17
2018-12-04T08:58:43.006Z,101471.34
2018-12-04T09:01:10.496Z,101484.83
2018-12-04T09:03:37.981Z,101485.40
2018-12-04T09:06:07.461Z,101495.63
2018-12-04T09:08:35.222Z,101501.34
2018-12-04T09:11:02.781Z,101508.33
2018-12-04T09:13:30.390Z,101513.70
2018-12-04T09:15:58.053Z,101525.34
2018-12-04T09:18:25.587Z,101532.06
2018-12-04T09:20:53.259Z,101545.01
2018-12-04T09:23:21.007Z,101550.46
2018-12-04T09:25:48.644Z,101560.98
2018-12-04T09:28:16.308Z,101561.27
2018-12-04T09:30:43.977Z,101576.38
2018-12-04T09:33:11.464Z,101579.36
2018-12-04T09:35:38.973Z,101580.47
2018-12-04T09:38:06.460Z,101592.85
2018-12-04T09:40:33.969Z,101594.74
2018-12-04T09:43:04.157Z,101604.16
2018-12-04T09:45:31.224Z,101614.61
2018-12-04T09:47:58.704Z,101619.67
2018-12-04T09:50:26.234Z,101622.11
2018-12-04T09:52:53.807Z,101626.43
2018-12-04T09:55:21.302Z,101625.08
2018-12-04T09:57:48.804Z,101626.71
2018-12-04T10:00:16.324Z,101628.59
2018-12-04T10:02:43.804Z,101630.77
2018-12-04T10:05:11.479Z,101626.74
2018-12-04T10:07:38.994Z,101638.63
2018-12-04T10:10:07.114Z,101644.32
2018-12-04T10:12:34.626Z,101647.81
2018-12-04T10:15:02.119Z,101660.23
2018-12-04T10:17:29.620Z,101646.80
2018-12-04T10:19:57.121Z,101660.04
2018-12-04T10:22:24.665Z,101658.95
2018-12-04T10:24:52.178Z,101664.64
2018-12-04T10:27:19.649Z,101668.67
2018-12-04T10:29:47.179Z,101665.98
2018-12-04T10:32:14.713Z,101679.75
2018-12-04T10:34:42.193Z,101687.02
2018-12-04T10:37:09.683Z,101688.65
2018-12-04T10:39:37.220Z,101691.91
2018-12-04T10:42:04.829Z,101690.59
2018-12-04T10:44:32.325Z,101685.48
2018-12-04T10:46:59.865Z,101685.79
2018-12-04T10:49:27.486Z,101690.63
2018-12-04T10:51:54.965Z,101691.99
2018-12-04T10:54:22.451Z,101695.25
2018-12-04T10:56:50.051Z,101697.70
2018-12-04T10:59:17.542Z,101694.23
2018-12-04T11:01:51.549Z,101694.00
2018-12-04T11:04:19.041Z,101692.43
2018-12-04T11:06:46.689Z,101697.84
2018-12-04T11:09:14.168Z,101702.75
2018-12-04T11:11:41.645Z,101714.05
2018-12-04T11:14:09.284Z,101720.80
2018-12-04T11:16:36.801Z,101720.55
2018-12-04T11:19:04.336Z,101724.61
2018-12-04T11:21:31.980Z,101732.45
2018-12-04T11:23:59.452Z,101736.00
2018-12-04T11:26:26.971Z,101744.12
2018-12-04T11:28:54.589Z,101742.28
2018-12-04T11:31:22.070Z,101746.86
2018-12-04T11:33:49.554Z,101749.33
2018-12-04T11:36:17.056Z,101757.75
2018-12-04T11:38:44.600Z,101752.88
2018-12-04T11:41:12.204Z,101758.56
2018-12-04T11:43:39.748Z,101758.86
2018-12-04T11:46:07.365Z,101765.34
2018-12-04T11:48:34.846Z,101761.61
2018-12-04T11:51:02.332Z,101764.32
2018-12-04T11:53:29.833Z,101771.08
2018-12-04T11:55:57.346Z,101774.34
2018-12-04T11:58:25.066Z,101778.93
2018-12-04T12:00:52.607Z,101780.83
2018-12-04T12:03:20.296Z,101786.78
2018-12-04T12:05:47.810Z,101792.20
2018-12-04T12:08:15.359Z,101800.27
2018-12-04T12:10:42.865Z,101805.16
2018-12-04T12:13:10.408Z,101802.77
2018-12-04T12:15:37.916Z,101809.49
2018-12-04T12:18:05.480Z,101794.66
2018-12-04T12:20:32.968Z,101789.03
2018-12-04T12:23:00.479Z,101801.16
2018-12-04T12:25:27.960Z,101810.35
2018-12-04T12:27:55.584Z,101817.13
2018-12-04T12:30:23.065Z,101821.98
2018-12-04T12:32:50.599Z,101817.67
2018-12-04T12:35:18.113Z,101826.03
2018-12-04T12:37:45.649Z,101826.03
2018-12-04T12:40:13.224Z,101837.63
2018-12-04T12:42:40.763Z,101842.52
2018-12-04T12:45:08.295Z,101852.50
2018-12-04T12:47:35.872Z,101856.83
2018-12-04T12:50:03.482Z,101854.41
2018-12-04T12:52:30.965Z,101859.80
2018-12-04T12:54:58.622Z,101862.77
2018-12-04T12:57:26.112Z,101861.72
2018-12-04T12:59:53.643Z,101856.30
2018-12-04T13:02:21.149Z,101870.08
2018-12-04T13:04:48.653Z,101863.86
2018-12-04T13:07:16.259Z,101869.27
2018-12-04T13:09:43.742Z,101869.03
2018-12-04T13:12:11.225Z,101871.72
2018-12-04T13:14:38.784Z,101879.83
2018-12-04T13:17:06.277Z,101885.20
2018-12-04T13:19:33.850Z,101879.24
2018-12-04T13:22:01.377Z,101881.92
2018-12-04T13:24:28.895Z,101886.79
2018-12-04T13:26:56.574Z,101884.61
2018-12-04T13:29:24.120Z,101889.20
2018-12-04T13:31:51.638Z,101881.39
2018-12-04T13:34:19.215Z,101876.25
2018-12-04T13:36:46.814Z,101883.78
2018-12-04T13:39:14.352Z,101888.89
2018-12-04T13:41:41.862Z,101896.98
2018-12-04T13:44:09.355Z,101900.77
2018-12-04T13:46:37.087Z,101913.44
2018-12-04T13:49:04.571Z,101916.94
2018-12-04T13:51:32.054Z,101918.08
2018-12-04T13:56:33.250Z,101925.92
2018-12-04T13:59:00.801Z,101926.17
2018-12-04T14:01:28.289Z,101934.27
2018-12-04T14:03:55.826Z,101939.14
2018-12-04T14:06:23.422Z,101937.80
2018-12-04T14:08:50.972Z,101946.43
2018-12-04T14:11:18.531Z,101951.83
2018-12-04T14:13:46.064Z,101951.01
2018-12-04T14:16:13.665Z,101954.77
2018-12-04T14:18:41.207Z,101960.44
2018-12-04T14:21:08.739Z,101969.08
2018-12-04T14:23:36.329Z,101967.99
2018-12-04T14:26:04.012Z,101971.73
2018-12-04T14:28:31.607Z,101971.72
2018-12-04T14:30:59.180Z,101976.27
2018-12-04T14:33:26.680Z,101979.73
2018-12-04T14:35:54.284Z,101981.30
2018-12-04T14:38:24.620Z,101990.69
2018-12-04T14:40:51.888Z,101993.60
2018-12-04T14:43:19.381Z,101995.73
2018-12-04T14:45:46.894Z,102002.45
2018-12-04T14:48:14.524Z,102009.41
2018-12-04T14:50:42.087Z,102012.59
2018-12-04T14:53:09.743Z,102013.31
2018-12-04T14:55:37.232Z,102016.24
2018-12-04T14:58:04.773Z,102016.70
2018-12-04T15:00:32.413Z,102020.11
2018-12-04T15:03:00.087Z,102024.13
2018-12-04T15:05:27.608Z,102030.55
2018-12-04T15:07:55.179Z,102038.53
2018-12-04T15:10:22.844Z,102042.77
2018-12-04T15:12:50.415Z,102042.70
2018-12-04T15:15:18.091Z,102044.23
2018-12-04T15:17:45.928Z,102053.08
2018-12-04T15:20:13.493Z,102053.78
2018-12-04T15:22:41.032Z,102052.36
2018-12-04T15:25:08.649Z,102055.81
2018-12-04T15:27:36.184Z,102063.81
2018-12-04T15:30:05.673Z,102075.05
2018-12-04T15:32:33.200Z,102072.58
2018-12-04T15:35:00.769Z,102079.73
2018-12-04T15:37:28.436Z,102073.39
2018-12-04T15:39:55.940Z,102082.59
2018-12-04T15:42:23.470Z,102081.72
2018-12-04T15:44:51.037Z,102089.28
2018-12-04T15:47:18.597Z,102087.89
2018-12-04T15:49:46.174Z,102092.66
2018-12-04T15:52:14.496Z,102085.80
2018-12-04T15:54:42.155Z,102097.98
2018-12-04T15:57:09.642Z,102097.14
2018-12-04T15:59:37.256Z,102102.77
2018-12-04T16:02:04.797Z,102095.42
2018-12-04T16:04:32.550Z,102104.23
2018-12-04T16:07:00.171Z,102105.79
2018-12-04T16:09:27.743Z,102107.05
2018-12-04T16:11:55.221Z,102114.48
2018-12-04T16:14:22.771Z,102110.35
2018-12-04T16:16:50.327Z,102118.04
2018-12-04T16:19:17.820Z,102116.06
2018-12-04T16:21:45.521Z,102118.14
2018-12-04T16:24:13.103Z,102117.80
2018-12-04T16:26:40.594Z,102122.57
2018-12-04T16:29:08.096Z,102119.73
2018-12-04T16:31:35.652Z,102118.53
2018-12-04T16:34:03.169Z,102113.81
2018-12-04T16:36:30.649Z,102115.30
2018-12-04T16:38:58.204Z,102123.84
2018-12-04T16:41:25.932Z,102118.96
2018-12-04T16:43:53.475Z,102120.20
2018-12-04T16:46:20.995Z,102125.52
2018-12-04T16:48:48.490Z,102122.91
2018-12-04T16:51:16.204Z,102121.17
2018-12-04T16:53:43.783Z,102120.25
2018-12-04T16:56:11.325Z,102122.77
2018-12-04T16:58:38.818Z,102130.83
2018-12-04T17:01:06.365Z,102134.00
2018-12-04T17:03:34.012Z,102133.14
2018-12-04T17:06:01.558Z,102128.11
2018-12-04T17:08:29.048Z,102143.95
2018-12-04T17:10:56.679Z,102145.73
2018-12-04T17:13:24.161Z,102150.24
2018-12-04T17:15:51.634Z,102151.47
2018-12-04T17:18:19.160Z,102154.33
2018-12-04T17:20:46.678Z,102161.69
2018-12-04T17:23:14.155Z,102165.84
2018-12-04T17:25:41.721Z,102160.91
2018-12-04T17:28:09.200Z,102167.86
2018-12-04T17:30:36.891Z,102169.20
2018-12-04T17:33:04.363Z,102167.29
2018-12-04T17:35:31.914Z,102160.52
2018-12-04T17:37:59.498Z,102169.31
2018-12-04T17:40:26.970Z,102167.47
2018-12-04T17:42:54.540Z,102171.99
2018-12-04T17:45:22.168Z,102173.51
2018-12-04T17:47:49.648Z,102181.56
2018-12-04T17:50:17.135Z,102180.69
2018-12-04T17:52:44.691Z,102184.11
2018-12-04T17:55:12.343Z,102183.24
2018-12-04T17:57:39.825Z,102182.58
2018-12-04T18:00:09.985Z,102183.81
2018-12-04T18:02:37.535Z,102178.09
2018-12-04T18:05:05.019Z,102181.44
2018-12-04T18:07:32.624Z,102184.59
2018-12-04T18:10:00.115Z,102184.76
2018-12-04T18:12:27.596Z,102179.80
2018-12-04T18:14:55.515Z,102183.15
2018-12-04T18:17:22.999Z,102186.30
2018-12-04T18:19:50.527Z,102189.14
2018-12-04T18:22:18.077Z,102180.66
2018-12-04T18:24:45.583Z,102180.52
2018-12-04T18:27:13.081Z,102178.61
2018-12-04T18:29:40.602Z,102182.48
2018-12-04T18:32:08.154Z,102193.44
2018-12-04T18:34:35.661Z,102196.05
2018-12-04T18:37:03.188Z,102196.44
2018-12-04T18:39:30.683Z,102200.31
2018-12-04T18:41:58.177Z,102207.20
2018-12-04T18:44:25.703Z,102211.19
2018-12-04T18:46:53.226Z,102215.40
2018-12-04T18:49:20.746Z,102212.30
2018-12-04T18:51:48.280Z,102213.80
2018-12-04T18:54:15.791Z,102211.84
2018-12-04T18:56:43.286Z,102208.59
2018-12-04T18:59:10.960Z,102213.03
2018-12-04T19:01:38.445Z,102219.42
2018-12-04T19:04:05.966Z,102221.53
2018-12-04T19:06:33.477Z,102230.29
2018-12-04T19:09:00.995Z,102232.39
2018-12-04T19:11:28.617Z,102236.33
2018-12-04T19:13:56.129Z,102244.29
2018-12-04T19:16:23.610Z,102247.70
2018-12-04T19:18:51.263Z,102248.95
2018-12-04T19:21:18.792Z,102242.48
2018-12-04T19:23:46.268Z,102243.74
2018-12-04T19:26:13.832Z,102253.95
2018-12-04T19:28:41.361Z,102252.23
2018-12-04T19:31:08.856Z,102262.63
2018-12-04T19:33:36.476Z,102258.13
2018-12-04T19:36:04.049Z,102255.14
2018-12-04T19:38:32.074Z,102254.52
2018-12-04T19:40:59.693Z,102257.73
2018-12-04T19:43:27.239Z,102254.44
2018-12-04T19:45:54.732Z,102256.84
2018-12-04T19:48:22.272Z,102266.22
2018-12-04T19:50:49.751Z,102269.70
2018-12-04T19:53:17.443Z,102272.38
2018-12-04T19:55:45.062Z,102272.61
2018-12-04T19:58:12.536Z,102273.94
2018-12-04T20:00:40.017Z,102269.62
2018-12-04T20:03:07.633Z,102269.39
2018-12-04T20:05:35.114Z,102274.47
2018-12-04T20:08:02.721Z,102269.12
2018-12-04T20:10:30.354Z,102277.66
2018-12-04T20:12:57.975Z,102278.48
2018-12-04T20:15:25.519Z,102276.31
2018-12-04T20:17:53.136Z,102278.19
2018-12-04T20:20:20.616Z,102282.70
2018-12-04T20:22:48.088Z,102286.94
2018-12-04T20:25:15.838Z,102280.24
2018-12-04T20:27:43.331Z,102286.12
2018-12-04T20:30:10.845Z,102281.28
2018-12-04T20:32:38.385Z,102279.66
2018-12-04T20:35:05.873Z,102289.84
2018-12-04T20:37:33.349Z,102279.36
2018-12-04T20:40:00.877Z,102282.34
2018-12-04T20:42:28.387Z,102290.95
2018-12-04T20:44:55.914Z,102284.26
2018-12-04T20:47:23.530Z,102280.10
2018-12-04T20:49:51.009Z,102287.10
2018-12-04T20:52:18.496Z,102287.98
2018-12-04T20:54:46.148Z,102285.62
2018-12-04T20:57:13.658Z,102291.59
2018-12-04T20:59:41.141Z,102291.59
2018-12-04T21:02:08.733Z,102296.19
2018-12-04T21:04:36.218Z,102302.38
2018-12-04T21:07:03.899Z,102308.54
2018-12-04T21:09:31.456Z,102301.84
2018-12-04T21:11:58.937Z,102295.69
2018-12-04T21:14:26.556Z,102300.81
2018-12-04T21:16:54.049Z,102305.95
2018-12-04T21:19:21.661Z,102302.73
2018-12-04T21:21:49.145Z,102305.72
2018-12-04T21:24:16.787Z,102304.69
2018-12-04T21:26:44.295Z,102309.20
2018-12-04T21:29:17.374Z,102313.30
2018-12-04T21:31:50.545Z,102310.43
2018-12-04T21:34:23.567Z,102318.23
2018-12-04T21:36:56.608Z,102311.55
2018-12-04T21:39:26.076Z,102304.54
2018-12-04T21:42:00.724Z,102309.90
2018-12-04T21:44:33.681Z,102317.41
2018-12-04T21:47:06.843Z,102318.47
2018-12-04T21:49:34.381Z,102318.97
2018-12-04T21:52:01.915Z,102318.38
2018-12-04T21:54:29.628Z,102323.52
2018-12-04T21:56:57.113Z,102328.34
2018-12-04T21:59:24.587Z,102317.13
2018-12-04T22:01:52.097Z,102322.26
2018-12-04T22:04:19.572Z,102323.59
2018-12-04T22:06:47.154Z,102326.27
2018-12-04T22:09:14.666Z,102335.65
2018-12-04T22:11:42.372Z,102332.44
2018-12-04T22:14:09.868Z,102339.13
2018-12-04T22:16:37.421Z,102345.61
2018-12-04T22:19:05.029Z,102348.01
2018-12-04T22:21:32.545Z,102341.00
2018-12-04T22:24:00.160Z,102341.50
2018-12-04T22:26:27.689Z,102342.03
2018-12-04T22:28:55.284Z,102333.20
2018-12-04T22:31:22.787Z,102343.06
2018-12-04T22:33:50.312Z,102344.94
2018-12-04T22:36:17.788Z,102340.39
2018-12-04T22:38:45.314Z,102346.28
2018-12-04T22:41:12.808Z,102348.42
2018-12-04T22:43:40.333Z,102348.42
2018-12-04T22:46:07.816Z,102349.77
2018-12-04T22:48:35.401Z,102348.65
2018-12-04T22:51:02.908Z,102347.00
2018-12-04T22:53:30.449Z,102343.52
2018-12-04T22:55:57.971Z,102347.53
2018-12-04T22:58:25.456Z,102353.61
2018-12-04T23:00:53.093Z,102358.16
2018-12-04T23:03:20.573Z,102355.70
2018-12-04T23:05:48.095Z,102350.58
2018-12-04T23:08:15.592Z,102352.19
2018-12-04T23:10:43.063Z,102348.40
2018-12-04T23:13:10.592Z,102348.70
2018-12-04T23:15:38.089Z,102343.35
2018-12-04T23:18:05.799Z,102344.69
2018-12-04T23:20:33.286Z,102339.25
2018-12-04T23:23:00.773Z,102331.22
2018-12-04T23:25:28.318Z,102331.22
2018-12-04T23:27:55.802Z,102324.22
2018-12-04T23:30:23.391Z,102337.02
2018-12-04T23:32:50.924Z,102332.39
2018-12-04T23:35:18.412Z,102333.65
2018-12-04T23:37:45.925Z,102329.55
2018-12-04T23:40:13.434Z,102326.59
2018-12-04T23:42:40.943Z,102317.42
2018-12-04T23:45:08.606Z,102321.44
2018-12-04T23:47:36.133Z,102326.28
2018-12-04T23:50:04.318Z,102324.33
2018-12-04T23:52:31.875Z,102329.69
2018-12-04T23:54:59.466Z,102330.22
2018-12-04T23:57:26.948Z,102323.75
2018-12-04T23:59:54.453Z,102325.31
